Terminal Aerodrome Forecast
Issued by NWS

Home | Current Version | Previous Version | Text Only | Print | Product List | Glossary On
Versions: 1 2 3 4 5 6 7 8 9 10 11 12 13 14 15 16 17 18 19 20 21 22 23
588
FTUS41 KAKQ 252056 AAA
TAFPHF
TAF AMD
KPHF 252056Z 2521/2618 21012G22KT P6SM VCTS SCT030CB BKN100
      TEMPO 2521/2523 1SM TSRAGR OVC020CB
     FM252300 24013G20KT P6SM BKN080
     FM261300 26013KT P6SM SCT110=

USA.gov is the U.S. government's official web portal to all federal, state and local government web resources and services.